Detall de PIREP

Printer-friendly versionPDF version

[2015/02/20 09:47:00]
Flight IATA:CT3216
Pilot Number:042
Company ICAO:CAT
Aircraft Type:A320/E
PAX:90
Departing Airport: LEPA
Destination Airport: EIDW
Alternate Airport:EINN
Online: VATSIM
Route:DRAGO UN863 TIRAV UT183 DEGEX UN490 TERKU UN864 EXMOR UM17 VATRY
Flight Level:F360
No Slew and time accel
No pause
Crash detect
Detect pilot in Cockpit between each 30 and 45 minutes
09:47 Zero fuel Weight: 123119 Lbs, Fuel Weight: 41882 Lbs
09:47 VATSIM:LEPA 200930Z 05008KT 020V080 9999 FEW020 13/09 Q1024 NOSIG
09:47 VATSIM:EIDW 200930Z 24013KT 9999 FEW024 SCT140 BKN200 03/01 Q1006 NOSIG
09:56 Parking Brakes off
10:07 Take-off
10:07 Take off Weight: 164229 Lbs
10:07 Wind: 000º @ 000 Knots Heading: 238º
10:07 POS N39º 33´ 09´´ E002º 43´ 20´´
10:07 Gear Up: 150 Knots
10:07 Flaps:3 at 150 Knots
10:08 Flaps:2 at 175 Knots
10:08 Flaps:0 at 201 Knots
10:22 Wind:270º@025 Knots Heading: 335º Ground Speed: 453 Knots Altitude 25770 ft
10:33 TOC
10:33 Fuel Weight: 37073 Lb
10:37 Wind:270º@025 Knots Heading: 352º Ground Speed: 448 Knots Altitude 35994 ft
10:52 Wind:270º@025 Knots Heading: 333º Ground Speed: 440 Knots Altitude 35994 ft
11:07 Wind:270º@025 Knots Heading: 333º Ground Speed: 439 Knots Altitude 37995 ft
11:22 Wind:270º@025 Knots Heading: 311º Ground Speed: 431 Knots Altitude 37995 ft
11:37 Wind:270º@025 Knots Heading: 358º Ground Speed: 450 Knots Altitude 37995 ft
11:52 Wind:270º@025 Knots Heading: 334º Ground Speed: 439 Knots Altitude 37995 ft
12:04 TOD
12:04 Fuel Weight: 29636 Lb
12:07 Wind:270º@025 Knots Heading: 333º Ground Speed: 417 Knots Altitude 29944 ft
12:22 Wind:270º@020 Knots Heading: 056º Ground Speed: 249 Knots Altitude 7276 ft
12:24 Flaps:1 at 213 Knots
12:25 Flaps:3 at 177 Knots
12:28 Gear Down: 167 Knots
12:28 Flaps:4 at 150 Knots
12:28 Flaps:5 at 147 Knots
12:31 TouchDown:Rate -119 ft/min Speed: 139 Knots
12:31 VATSIM:EIDW 201200Z 24014KT 9999 FEW024 SCT120 BKN200 05/02 Q1004 NOSIG
12:31 Land
12:31 Wind:000º@000 Knots
12:31 Heading: 275º
12:31 Flight Duration: 02:24
12:31 Landing Weight: 151352 Lbs
12:31 POS N53º 25´ 16´´ W006º 16´ 15´´
12:37 Parking brakes on
12:37 Block to Block Duration: 02:41
12:37 Final Fuel: 27711 Lbls
12:37 Spent Fuel: 14171 Lbls
12:37 Flight Length: 965 NM
12:37 TOD Land Length: 125 NM

Exportar CSV

Powered by Drupal - Modified by Danger4k